createdAt,value
2023-03-19T00:01:49.419Z,97463.63
2023-03-19T00:04:15.710Z,97466.56
2023-03-19T00:06:42.058Z,97463.59
2023-03-19T00:09:08.348Z,97457.72
2023-03-19T00:11:34.641Z,97467.59
2023-03-19T00:14:00.947Z,97458.78
2023-03-19T00:16:27.398Z,97452.91
2023-03-19T00:18:54.017Z,97451.28
2023-03-19T00:21:20.353Z,97461.44
2023-03-19T00:23:46.749Z,97457.16
2023-03-19T00:26:13.139Z,97454.19
2023-03-19T00:28:39.434Z,97455.28
2023-03-19T00:31:05.829Z,97457.41
2023-03-19T00:33:32.171Z,97463.78
2023-03-19T00:35:58.585Z,97466.72
2023-03-19T00:38:24.975Z,97468.84
2023-03-19T00:40:51.392Z,97459.25
2023-03-19T00:43:17.701Z,97466.72
2023-03-19T00:45:44.252Z,97464.03
2023-03-19T00:48:10.609Z,97463.50
2023-03-19T00:50:37.080Z,97461.09
2023-03-19T00:53:03.622Z,97464.84
2023-03-19T00:55:29.997Z,97466.69
2023-03-19T00:57:56.306Z,97467.50
2023-03-19T01:00:23.255Z,97473.13
2023-03-19T01:02:49.876Z,97480.31
2023-03-19T01:05:16.346Z,97467.50
2023-03-19T01:07:42.680Z,97474.69
2023-03-19T01:10:08.996Z,97479.22
2023-03-19T01:12:35.348Z,97474.13
2023-03-19T01:15:01.687Z,97472.81
2023-03-19T01:17:28.028Z,97476.75
2023-03-19T01:19:54.360Z,97468.19
2023-03-19T01:22:20.673Z,97478.88
2023-03-19T01:24:47.117Z,97485.28
2023-03-19T01:27:13.459Z,97481.00
2023-03-19T01:29:39.811Z,97477.00
2023-03-19T01:32:06.216Z,97477.00
2023-03-19T01:34:32.772Z,97480.72
2023-03-19T01:36:59.164Z,97479.13
2023-03-19T01:39:25.819Z,97480.44
2023-03-19T01:41:52.180Z,97479.66
2023-03-19T01:44:18.558Z,97481.75
2023-03-19T01:46:45.071Z,97488.69
2023-03-19T01:49:11.720Z,97483.63
2023-03-19T01:51:38.347Z,97489.78
2023-03-19T01:54:04.695Z,97481.75
2023-03-19T01:56:31.070Z,97489.78
2023-03-19T01:58:57.498Z,97483.63
2023-03-19T02:01:24.037Z,97477.72
2023-03-19T02:03:50.437Z,97460.09
2023-03-19T02:06:16.758Z,97470.53
2023-03-19T02:08:43.077Z,97470.78
2023-03-19T02:11:09.532Z,97466.50
2023-03-19T02:13:35.815Z,97477.19
2023-03-19T02:16:02.209Z,97467.56
2023-03-19T02:18:29.733Z,97476.91
2023-03-19T02:20:56.106Z,97484.16
2023-03-19T02:23:22.527Z,97479.13
2023-03-19T02:25:48.786Z,97473.78
2023-03-19T02:28:15.202Z,97477.50
2023-03-19T02:30:41.533Z,97486.56
2023-03-19T02:33:07.866Z,97473.50
2023-03-19T02:35:34.299Z,97470.81
2023-03-19T02:38:00.630Z,97469.19
2023-03-19T02:40:26.944Z,97468.91
2023-03-19T02:42:53.158Z,97471.28
2023-03-19T02:45:19.448Z,97469.94
2023-03-19T02:47:45.760Z,97475.56
2023-03-19T02:50:12.060Z,97470.75
2023-03-19T02:52:38.463Z,97465.91
2023-03-19T02:55:05.094Z,97458.97
2023-03-19T02:57:31.492Z,97466.41
2023-03-19T02:59:57.826Z,97472.03
2023-03-19T03:02:24.226Z,97467.72
2023-03-19T03:04:50.654Z,97469.06
2023-03-19T03:07:17.057Z,97467.44
2023-03-19T03:09:43.415Z,97477.31
2023-03-19T03:12:09.732Z,97481.31
2023-03-19T03:14:36.036Z,97477.03
2023-03-19T03:17:02.372Z,97475.41
2023-03-19T03:19:28.790Z,97473.00
2023-03-19T03:21:55.213Z,97478.34
2023-03-19T03:24:21.491Z,97469.78
2023-03-19T03:26:48.219Z,97472.72
2023-03-19T03:29:14.929Z,97472.72
2023-03-19T03:31:41.338Z,97478.84
2023-03-19T03:34:07.678Z,97472.72
2023-03-19T03:36:34.097Z,97480.16
2023-03-19T03:39:00.396Z,97478.56
2023-03-19T03:41:26.921Z,97480.44
2023-03-19T03:43:56.415Z,97479.09
2023-03-19T03:46:22.717Z,97482.78
2023-03-19T03:48:49.131Z,97481.19
2023-03-19T03:51:15.797Z,97488.66
2023-03-19T03:53:42.264Z,97490.78
2023-03-19T03:56:08.584Z,97491.84
2023-03-19T03:58:36.572Z,97491.28
2023-03-19T04:01:03.216Z,97494.22
2023-03-19T04:03:29.616Z,97497.13
2023-03-19T04:05:57.131Z,97490.19
2023-03-19T04:08:23.502Z,97488.84
2023-03-19T04:10:49.783Z,97498.97
2023-03-19T04:13:16.019Z,97498.41
2023-03-19T04:15:42.342Z,97495.19
2023-03-19T04:18:08.668Z,97494.63
2023-03-19T04:20:35.356Z,97495.69
2023-03-19T04:23:05.045Z,97494.06
2023-03-19T04:25:31.487Z,97489.00
2023-03-19T04:27:57.894Z,97488.44
2023-03-19T04:30:24.221Z,97492.19
2023-03-19T04:32:50.521Z,97498.59
2023-03-19T04:35:16.971Z,97496.94
2023-03-19T04:37:43.325Z,97495.34
2023-03-19T04:40:09.728Z,97492.09
2023-03-19T04:42:36.149Z,97499.56
2023-03-19T04:45:02.566Z,97496.31
2023-03-19T04:47:28.947Z,97500.06
2023-03-19T04:49:55.479Z,97503.00
2023-03-19T04:52:21.863Z,97505.09
2023-03-19T04:54:48.266Z,97508.81
2023-03-19T04:57:14.584Z,97506.38
2023-03-19T04:59:40.935Z,97503.97
2023-03-19T05:02:07.303Z,97501.56
2023-03-19T05:04:33.697Z,97498.34
2023-03-19T05:07:00.043Z,97497.53
2023-03-19T05:09:26.476Z,97495.94
2023-03-19T05:11:52.948Z,97495.94
2023-03-19T05:14:19.259Z,97504.19
2023-03-19T05:16:45.575Z,97496.19
2023-03-19T05:19:12.303Z,97509.53
2023-03-19T05:21:38.775Z,97520.19
2023-03-19T05:24:05.103Z,97513.22
2023-03-19T05:26:31.377Z,97508.16
2023-03-19T05:28:58.021Z,97510.81
2023-03-19T05:31:24.341Z,97510.00
2023-03-19T05:33:50.915Z,97508.41
2023-03-19T05:36:17.251Z,97513.75
2023-03-19T05:38:43.506Z,97517.22
2023-03-19T05:41:09.785Z,97518.25
2023-03-19T05:43:36.064Z,97515.84
2023-03-19T05:46:02.478Z,97524.09
2023-03-19T05:48:28.864Z,97524.09
2023-03-19T05:50:55.092Z,97525.16
2023-03-19T05:53:21.346Z,97534.78
2023-03-19T05:55:47.698Z,97533.16
2023-03-19T05:58:14.017Z,97543.84
2023-03-19T06:00:40.293Z,97549.94
2023-03-19T06:03:06.669Z,97551.59
2023-03-19T06:05:33.022Z,97546.25
2023-03-19T06:07:59.477Z,97551.59
2023-03-19T06:10:25.781Z,97563.28
2023-03-19T06:12:52.127Z,97567.84
2023-03-19T06:15:18.379Z,97567.03
2023-03-19T06:17:44.693Z,97574.19
2023-03-19T06:20:10.969Z,97577.13
2023-03-19T06:22:37.480Z,97587.78
2023-03-19T06:25:03.848Z,97588.84
2023-03-19T06:27:30.451Z,97589.13
2023-03-19T06:29:58.953Z,97579.22
2023-03-19T06:32:25.272Z,97587.47
2023-03-19T06:34:51.572Z,97593.63
2023-03-19T06:37:17.849Z,97600.00
2023-03-19T06:39:44.168Z,97598.41
2023-03-19T06:42:10.474Z,97584.50
2023-03-19T06:44:38.237Z,97574.91
2023-03-19T06:47:04.842Z,97581.28
2023-03-19T06:49:31.493Z,97566.34
2023-03-19T06:51:58.106Z,97577.00
2023-03-19T06:54:24.627Z,97566.34
2023-03-19T06:56:51.183Z,97577.00
2023-03-19T06:59:17.536Z,97577.81
2023-03-19T07:01:44.230Z,97579.44
2023-03-19T07:04:10.949Z,97579.44
2023-03-19T07:06:37.678Z,97579.44
2023-03-19T07:09:04.268Z,97583.69
2023-03-19T07:11:30.618Z,97585.31
2023-03-19T07:13:57.050Z,97593.63
2023-03-19T07:16:23.558Z,97593.13
2023-03-19T07:18:50.178Z,97599.06
2023-03-19T07:21:26.665Z,97607.19
2023-03-19T07:23:53.295Z,97620.28
2023-03-19T07:26:19.657Z,97634.63
2023-03-19T07:28:48.725Z,97643.19
2023-03-19T07:31:16.355Z,97643.59
2023-03-19T07:33:43.252Z,97634.34
2023-03-19T07:36:13.430Z,97638.06
2023-03-19T07:38:40.269Z,97650.16
2023-03-19T07:41:07.063Z,97651.06
2023-03-19T07:43:33.829Z,97661.72
2023-03-19T07:46:00.441Z,97654.28
2023-03-19T07:48:29.936Z,97662.44
2023-03-19T07:50:56.276Z,97666.22
2023-03-19T07:53:32.942Z,97662.00
2023-03-19T07:56:04.164Z,97662.28
2023-03-19T07:58:30.674Z,97656.94
2023-03-19T08:00:57.742Z,97656.91
2023-03-19T08:03:31.238Z,97663.63
2023-03-19T08:05:58.485Z,97665.78
2023-03-19T08:08:32.205Z,97673.81
2023-03-19T08:10:58.765Z,97673.78
2023-03-19T08:13:25.476Z,97674.06
2023-03-19T08:15:52.031Z,97670.56
2023-03-19T08:18:18.874Z,97658.22
2023-03-19T08:20:45.522Z,97656.91
2023-03-19T08:23:12.210Z,97652.91
2023-03-19T08:25:38.647Z,97656.63
2023-03-19T08:28:05.016Z,97657.72
2023-03-19T08:30:31.766Z,97656.63
2023-03-19T08:33:02.542Z,97649.91
2023-03-19T08:35:29.068Z,97648.84
2023-03-19T08:37:55.633Z,97655.00
2023-03-19T08:40:22.246Z,97653.09
2023-03-19T08:42:48.535Z,97652.47
2023-03-19T08:45:15.046Z,97661.78
2023-03-19T08:47:41.365Z,97703.66
2023-03-19T08:50:07.749Z,97684.31
2023-03-19T08:52:34.128Z,97643.91
2023-03-19T08:55:00.630Z,97632.28
2023-03-19T08:57:27.061Z,97637.75
2023-03-19T08:59:53.614Z,97636.94
2023-03-19T09:02:20.231Z,97638.28
2023-03-19T09:04:46.943Z,97646.31
2023-03-19T09:07:13.549Z,97658.09
2023-03-19T09:09:40.094Z,97659.63
2023-03-19T09:12:06.840Z,97648.88
2023-03-19T09:14:33.770Z,97649.97
2023-03-19T09:17:00.469Z,97656.66
2023-03-19T09:19:27.910Z,97657.91
2023-03-19T09:21:54.435Z,97655.78
2023-03-19T09:24:20.827Z,97650.22
2023-03-19T09:26:47.586Z,97650.25
2023-03-19T09:29:13.907Z,97650.00
2023-03-19T09:31:40.302Z,97644.91
2023-03-19T09:34:06.726Z,97644.38
2023-03-19T09:36:32.983Z,97638.19
2023-03-19T09:38:59.258Z,97649.47
2023-03-19T09:41:25.550Z,97642.47
2023-03-19T09:43:51.808Z,97645.91
2023-03-19T09:46:19.487Z,97641.34
2023-03-19T09:48:46.927Z,97646.97
2023-03-19T09:51:13.265Z,97655.84
2023-03-19T09:53:39.554Z,97646.69
2023-03-19T09:56:05.986Z,97649.91
2023-03-19T09:58:32.297Z,97646.94
2023-03-19T10:00:58.621Z,97650.16
2023-03-19T10:03:24.948Z,97656.34
2023-03-19T10:05:51.269Z,97646.13
2023-03-19T10:08:17.676Z,97649.34
2023-03-19T10:10:43.993Z,97644.75
2023-03-19T10:13:10.378Z,97653.34
2023-03-19T10:15:36.963Z,97656.84
2023-03-19T10:18:03.607Z,97650.91
2023-03-19T10:20:30.149Z,97655.22
2023-03-19T10:22:56.496Z,97657.34
2023-03-19T10:25:22.775Z,97660.56
2023-03-19T10:27:49.241Z,97660.00
2023-03-19T10:30:15.691Z,97657.03
2023-03-19T10:32:42.169Z,97658.66
2023-03-19T10:35:08.675Z,97660.25
2023-03-19T10:37:34.998Z,97664.78
2023-03-19T10:40:01.519Z,97663.19
2023-03-19T10:42:27.905Z,97655.44
2023-03-19T10:44:54.481Z,97663.00
2023-03-19T10:47:20.937Z,97661.16
2023-03-19T10:49:47.424Z,97657.19
2023-03-19T10:52:13.726Z,97651.03
2023-03-19T10:54:40.315Z,97654.00
2023-03-19T10:57:06.760Z,97642.75
2023-03-19T10:59:33.186Z,97643.31
2023-03-19T11:01:59.536Z,97651.91
2023-03-19T11:04:25.820Z,97649.50
2023-03-19T11:06:52.122Z,97652.72
2023-03-19T11:09:18.480Z,97659.69
2023-03-19T11:11:44.812Z,97648.97
2023-03-19T11:14:11.103Z,97642.00
2023-03-19T11:16:37.549Z,97652.75
2023-03-19T11:19:04.238Z,97647.94
2023-03-19T11:21:30.986Z,97648.47
2023-03-19T11:23:57.302Z,97654.91
2023-03-19T11:26:23.610Z,97655.97
2023-03-19T11:28:49.924Z,97655.69
2023-03-19T11:31:17.304Z,97644.66
2023-03-19T11:33:43.728Z,97647.63
2023-03-19T11:36:10.333Z,97651.09
2023-03-19T11:38:36.673Z,97652.13
2023-03-19T11:41:03.030Z,97642.16
2023-03-19T11:43:29.336Z,97640.81
2023-03-19T11:45:55.863Z,97627.44
2023-03-19T11:48:22.275Z,97631.25
2023-03-19T11:50:48.670Z,97626.97
2023-03-19T11:53:14.978Z,97614.66
2023-03-19T11:55:41.354Z,97619.47
2023-03-19T11:58:07.782Z,97631.31
2023-03-19T12:00:34.090Z,97618.47
2023-03-19T12:03:00.393Z,97629.22
2023-03-19T12:05:26.762Z,97624.94
2023-03-19T12:07:53.347Z,97620.13
2023-03-19T12:10:19.668Z,97622.81
2023-03-19T12:12:45.936Z,97618.50
2023-03-19T12:15:12.307Z,97613.69
2023-03-19T12:17:38.699Z,97626.28
2023-03-19T12:20:05.034Z,97623.88
2023-03-19T12:22:35.076Z,97621.19
2023-03-19T12:25:01.550Z,97625.50
2023-03-19T12:27:27.907Z,97624.13
2023-03-19T12:29:54.389Z,97616.38
2023-03-19T12:32:20.756Z,97608.88
2023-03-19T12:34:47.341Z,97612.34
2023-03-19T12:37:13.655Z,97608.88
2023-03-19T12:39:39.940Z,97616.88
2023-03-19T12:42:06.288Z,97608.25
2023-03-19T12:44:32.809Z,97608.72
2023-03-19T12:46:59.615Z,97613.50
2023-03-19T12:49:26.010Z,97608.94
2023-03-19T12:51:52.409Z,97614.56
2023-03-19T12:54:18.658Z,97601.13
2023-03-19T12:56:45.157Z,97601.94
2023-03-19T12:59:11.570Z,97606.50
2023-03-19T13:01:38.109Z,97605.69
2023-03-19T13:04:04.541Z,97612.97
2023-03-19T13:06:30.906Z,97617.53
2023-03-19T13:08:57.226Z,97623.72
2023-03-19T13:11:23.560Z,97622.63
2023-03-19T13:13:49.934Z,97619.38
2023-03-19T13:16:16.379Z,97623.41
2023-03-19T13:18:42.776Z,97618.56
2023-03-19T13:21:09.058Z,97622.03
2023-03-19T13:23:35.453Z,97632.00
2023-03-19T13:26:01.786Z,97633.31
2023-03-19T13:28:28.401Z,97650.53
2023-03-19T13:30:54.812Z,97651.59
2023-03-19T13:33:21.122Z,97648.38
2023-03-19T13:35:47.572Z,97626.41
2023-03-19T13:38:13.910Z,97638.19
2023-03-19T13:40:40.367Z,97631.22
2023-03-19T13:43:13.082Z,97623.19
2023-03-19T13:45:45.193Z,97625.88
2023-03-19T13:48:23.857Z,97628.53
2023-03-19T13:50:50.955Z,97630.13
2023-03-19T13:53:17.331Z,97623.72
2023-03-19T13:55:43.621Z,97623.16
2023-03-19T13:58:09.968Z,97622.59
2023-03-19T14:00:36.622Z,97618.81
2023-03-19T14:03:03.187Z,97620.97
2023-03-19T14:05:29.559Z,97618.81
2023-03-19T14:07:56.018Z,97615.84
2023-03-19T14:10:22.421Z,97613.44
2023-03-19T14:12:48.709Z,97622.03
2023-03-19T14:15:17.369Z,97620.13
2023-03-19T14:17:44.094Z,97609.38
2023-03-19T14:20:12.317Z,97613.44
2023-03-19T14:22:38.972Z,97608.34
2023-03-19T14:25:06.111Z,97608.34
2023-03-19T14:27:32.864Z,97606.44
2023-03-19T14:30:00.829Z,97597.84
2023-03-19T14:32:27.456Z,97598.63
2023-03-19T14:34:53.796Z,97601.59
2023-03-19T14:37:20.118Z,97601.06
2023-03-19T14:39:46.414Z,97595.72
2023-03-19T14:42:12.734Z,97600.00
2023-03-19T14:44:39.063Z,97600.00
2023-03-19T14:47:05.459Z,97599.22
2023-03-19T14:49:31.822Z,97601.88
2023-03-19T14:51:58.128Z,97600.81
2023-03-19T14:54:24.440Z,97598.38
2023-03-19T14:56:50.873Z,97598.38
2023-03-19T14:59:17.206Z,97598.38
2023-03-19T15:01:43.550Z,97590.34
2023-03-19T15:04:09.859Z,97596.28
2023-03-19T15:06:36.151Z,97598.97
2023-03-19T15:09:02.559Z,97596.56
2023-03-19T15:11:28.886Z,97598.44
2023-03-19T15:13:55.294Z,97595.22
2023-03-19T15:16:21.800Z,97595.22
2023-03-19T15:18:48.506Z,97597.38
2023-03-19T15:21:14.881Z,97598.47
2023-03-19T15:23:41.210Z,97600.34
2023-03-19T15:26:07.665Z,97597.94
2023-03-19T15:28:34.258Z,97611.34
2023-03-19T15:31:12.900Z,97605.16
2023-03-19T15:33:47.586Z,97605.44
2023-03-19T15:36:14.112Z,97608.94
2023-03-19T15:38:40.448Z,97611.63
2023-03-19T15:41:07.072Z,97611.63
2023-03-19T15:43:34.062Z,97609.75
2023-03-19T15:46:00.476Z,97604.38
2023-03-19T15:48:29.975Z,97604.38
2023-03-19T15:50:56.305Z,97608.94
2023-03-19T15:53:22.801Z,97610.81
2023-03-19T15:55:49.278Z,97615.13
2023-03-19T15:58:15.583Z,97610.81
2023-03-19T16:00:42.165Z,97611.38
2023-03-19T16:03:08.751Z,97611.38
2023-03-19T16:05:35.091Z,97612.72
2023-03-19T16:08:01.559Z,97613.00
2023-03-19T16:10:28.140Z,97615.97
2023-03-19T16:12:54.416Z,97613.56
2023-03-19T16:15:20.814Z,97617.34
2023-03-19T16:17:47.178Z,97616.81
2023-03-19T16:20:13.576Z,97625.91
2023-03-19T16:22:39.866Z,97628.88
2023-03-19T16:25:06.158Z,97625.38
2023-03-19T16:27:32.462Z,97634.53
2023-03-19T16:29:58.734Z,97639.34
2023-03-19T16:32:25.088Z,97638.81
2023-03-19T16:34:51.601Z,97643.66
2023-03-19T16:37:18.020Z,97643.66
2023-03-19T16:39:44.359Z,97651.19
2023-03-19T16:42:10.869Z,97647.97
2023-03-19T16:44:37.174Z,97658.19
2023-03-19T16:47:03.542Z,97648.00
2023-03-19T16:49:29.907Z,97654.16
2023-03-19T16:51:56.493Z,97660.88
2023-03-19T16:54:23.006Z,97663.84
2023-03-19T16:56:49.407Z,97664.13
2023-03-19T16:59:16.236Z,97668.94
2023-03-19T17:01:42.700Z,97671.09
2023-03-19T17:04:09.036Z,97678.59
2023-03-19T17:06:35.421Z,97679.94
2023-03-19T17:09:01.772Z,97674.56
2023-03-19T17:11:28.080Z,97679.94
2023-03-19T17:13:54.762Z,97682.13
2023-03-19T17:16:21.274Z,97688.53
2023-03-19T17:18:47.774Z,97690.41
2023-03-19T17:21:14.149Z,97692.31
2023-03-19T17:23:40.444Z,97693.09
2023-03-19T17:26:06.981Z,97694.44
2023-03-19T17:28:33.421Z,97690.97
2023-03-19T17:30:59.690Z,97696.31
2023-03-19T17:33:26.030Z,97700.09
2023-03-19T17:35:52.371Z,97709.19
2023-03-19T17:38:18.861Z,97712.97
2023-03-19T17:40:45.209Z,97714.03
2023-03-19T17:43:11.672Z,97717.78
2023-03-19T17:45:38.129Z,97718.84
2023-03-19T17:48:04.465Z,97721.00
2023-03-19T17:50:30.790Z,97720.19
2023-03-19T17:52:57.098Z,97728.50
2023-03-19T17:55:23.380Z,97732.25
2023-03-19T17:57:49.731Z,97725.28
2023-03-19T18:00:16.092Z,97734.41
2023-03-19T18:02:42.457Z,97736.53
2023-03-19T18:05:08.725Z,97741.91
2023-03-19T18:07:34.998Z,97740.28
2023-03-19T18:10:01.325Z,97741.38
2023-03-19T18:12:27.727Z,97747.81
2023-03-19T18:14:54.035Z,97745.38
2023-03-19T18:17:20.362Z,97746.75
2023-03-19T18:19:46.716Z,97749.41
2023-03-19T18:22:13.065Z,97747.28
2023-03-19T18:24:39.357Z,97751.56
2023-03-19T18:27:05.672Z,97755.31
2023-03-19T18:29:32.129Z,97752.09
2023-03-19T18:31:58.560Z,97753.16
2023-03-19T18:34:24.897Z,97756.09
2023-03-19T18:36:51.296Z,97763.34
2023-03-19T18:39:17.637Z,97762.81
2023-03-19T18:41:43.980Z,97771.91
2023-03-19T18:44:10.317Z,97773.00
2023-03-19T18:46:36.625Z,97776.75
2023-03-19T18:49:02.990Z,97774.31
2023-03-19T18:51:29.685Z,97769.25
2023-03-19T18:53:56.081Z,97774.06
2023-03-19T18:56:22.689Z,97784.00
2023-03-19T18:58:49.078Z,97788.53
2023-03-19T19:01:15.567Z,97790.69
2023-03-19T19:03:41.911Z,97792.28
2023-03-19T19:06:08.524Z,97790.69
2023-03-19T19:08:34.840Z,97793.34
2023-03-19T19:11:01.161Z,97797.91
2023-03-19T19:13:27.603Z,97797.91
2023-03-19T19:15:54.011Z,97794.19
2023-03-19T19:18:20.402Z,97801.41
2023-03-19T19:20:46.742Z,97807.84
2023-03-19T19:23:13.349Z,97804.09
2023-03-19T19:25:39.710Z,97809.44
2023-03-19T19:28:06.000Z,97804.09
2023-03-19T19:30:32.535Z,97804.09
2023-03-19T19:32:59.009Z,97815.88
2023-03-19T19:35:25.397Z,97813.22
2023-03-19T19:37:51.729Z,97812.41
2023-03-19T19:40:18.338Z,97817.75
2023-03-19T19:42:44.705Z,97815.88
2023-03-19T19:45:11.021Z,97819.88
2023-03-19T19:47:37.330Z,97822.56
2023-03-19T19:50:03.598Z,97823.66
2023-03-19T19:52:31.750Z,97833.56
2023-03-19T19:54:58.496Z,97844.28
2023-03-19T19:57:25.143Z,97834.63
2023-03-19T19:59:51.539Z,97835.69
2023-03-19T20:02:20.729Z,97845.59
2023-03-19T20:04:47.091Z,97842.91
2023-03-19T20:07:13.426Z,97843.19
2023-03-19T20:09:39.762Z,97845.06
2023-03-19T20:12:06.038Z,97851.22
2023-03-19T20:14:32.392Z,97849.91
2023-03-19T20:16:58.717Z,97861.41
2023-03-19T20:19:24.977Z,97865.16
2023-03-19T20:21:51.268Z,97872.41
2023-03-19T20:24:17.636Z,97868.91
2023-03-19T20:26:44.194Z,97869.97
2023-03-19T20:29:10.495Z,97879.88
2023-03-19T20:31:36.861Z,97881.78
2023-03-19T20:34:03.189Z,97880.16
2023-03-19T20:36:29.578Z,97883.91
2023-03-19T20:38:55.909Z,97887.09
2023-03-19T20:41:22.217Z,97889.78
2023-03-19T20:43:48.602Z,97893.53
2023-03-19T20:46:14.985Z,97891.94
2023-03-19T20:48:42.545Z,97884.16
2023-03-19T20:51:08.980Z,97883.34
2023-03-19T20:53:35.332Z,97884.41
2023-03-19T20:56:01.681Z,97892.44
2023-03-19T20:58:28.014Z,97890.84
2023-03-19T21:00:54.813Z,97898.88
2023-03-19T21:03:21.891Z,97892.69
2023-03-19T21:05:48.786Z,97899.97
2023-03-19T21:08:15.818Z,97902.63
2023-03-19T21:10:42.293Z,97899.97
2023-03-19T21:13:08.777Z,97913.34
2023-03-19T21:15:35.442Z,97906.09
2023-03-19T21:18:02.062Z,97907.44
2023-03-19T21:20:28.539Z,97906.63
2023-03-19T21:22:54.894Z,97916.53
2023-03-19T21:25:21.182Z,97913.06
2023-03-19T21:27:47.488Z,97915.75
2023-03-19T21:30:13.929Z,97918.44
2023-03-19T21:32:40.962Z,97912.53
2023-03-19T21:35:07.654Z,97915.19
2023-03-19T21:37:34.128Z,97913.56
2023-03-19T21:40:00.551Z,97920.00
2023-03-19T21:42:27.076Z,97914.66
2023-03-19T21:44:53.547Z,97918.38
2023-03-19T21:47:19.999Z,97922.94
2023-03-19T21:49:46.345Z,97919.47
2023-03-19T21:52:12.791Z,97924.00
2023-03-19T21:54:39.130Z,97914.34
2023-03-19T21:57:05.498Z,97919.72
2023-03-19T21:59:31.892Z,97923.44
2023-03-19T22:01:58.174Z,97922.94
2023-03-19T22:04:24.695Z,97920.25
2023-03-19T22:06:51.474Z,97921.25
2023-03-19T22:09:19.036Z,97930.38
2023-03-19T22:11:45.452Z,97926.06
2023-03-19T22:14:11.752Z,97922.84
2023-03-19T22:16:38.104Z,97923.66
2023-03-19T22:19:04.448Z,97928.19
2023-03-19T22:21:30.824Z,97937.31
2023-03-19T22:23:57.092Z,97927.91
2023-03-19T22:26:23.414Z,97933.03
2023-03-19T22:28:49.702Z,97932.47
2023-03-19T22:31:15.935Z,97932.47
2023-03-19T22:33:42.315Z,97932.75
2023-03-19T22:36:08.776Z,97929.25
2023-03-19T22:38:35.318Z,97930.31
2023-03-19T22:41:01.829Z,97926.03
2023-03-19T22:43:28.175Z,97918.25
2023-03-19T22:45:54.602Z,97919.06
2023-03-19T22:48:21.035Z,97912.06
2023-03-19T22:50:47.493Z,97913.97
2023-03-19T22:53:14.017Z,97906.97
2023-03-19T22:55:40.634Z,97915.00
2023-03-19T22:58:10.314Z,97913.69
2023-03-19T23:00:36.608Z,97904.00
2023-03-19T23:03:03.025Z,97908.56
2023-03-19T23:05:29.650Z,97905.09
2023-03-19T23:07:56.399Z,97906.13
2023-03-19T23:10:22.863Z,97905.34
2023-03-19T23:12:49.256Z,97906.13
2023-03-19T23:18:23.018Z,97900.47
2023-03-19T23:24:04.917Z,97891.28
2023-03-19T23:26:32.069Z,97896.84
2023-03-19T23:28:58.831Z,97893.06
2023-03-19T23:31:25.619Z,97891.97
2023-03-19T23:33:51.973Z,97890.06
2023-03-19T23:36:18.305Z,97896.19
2023-03-19T23:38:44.939Z,97903.09
2023-03-19T23:41:11.318Z,97901.78
2023-03-19T23:43:37.755Z,97895.31
2023-03-19T23:46:04.116Z,97903.25
2023-03-19T23:48:31.526Z,97895.97
2023-03-19T23:50:57.843Z,97895.69
2023-03-19T23:53:24.210Z,97901.81
2023-03-19T23:55:50.522Z,97907.66
2023-03-19T23:58:18.170Z,97909.22
